Observation data for Dimmitt on 06/25/2019      Previous  Date       Current Mesonet Observations  Soil Data  Daily Summary Page  Observations in Plain Language
KDMS 250500Z 15014KT 21/15 A30 RMK A01 T02090148  RH  072%=      5-min Rain = 0
KDMS 250505Z 15014KT 21/15 A30 RMK A01 T02080150  RH  073%=      5-min Rain = 0
KDMS 250510Z 15014G19KT 21/15 A30 RMK A01 T02070151  RH  073%=      5-min Rain = 0
KDMS 250515Z 15014KT 21/15 A30 RMK A01 T02070152  RH  074%=      5-min Rain = 0
KDMS 250520Z 15014KT 21/15 A30 RMK A01 T02080153  RH  074%=      5-min Rain = 0
KDMS 250525Z 15015KT 21/16 A30 RMK A01 T02100155  RH  074%=      5-min Rain = 0
KDMS 250530Z 15014G20KT 21/16 A30 RMK A01 T02110156  RH  074%=      5-min Rain = 0
KDMS 250535Z 15014KT 21/16 A30 RMK A01 T02120157  RH  074%=      5-min Rain = 0
KDMS 250540Z 15013KT 21/16 A30 RMK A01 T02130159  RH  074%=      5-min Rain = 0
KDMS 250545Z 15014G19KT 21/16 A30 RMK A01 T02140161  RH  075%=      5-min Rain = 0
KDMS 250550Z 15015KT 22/16 A30 RMK A01 T02150164  RH  076%=      5-min Rain = 0
KDMS 250555Z 15015KT 21/17 A30 RMK A01 T02140166  RH  078%=      5-min Rain = 0
KDMS 250600Z 15016KT 21/17 A30 RMK A01 T02140169  RH  079%=      5-min Rain = 0
KDMS 250605Z 15015KT 21/17 A30 RMK A01 T02140171  RH  080%=      5-min Rain = 0
KDMS 250610Z 15013KT 21/17 A30 RMK A01 T02130171  RH  081%=      5-min Rain = 0
KDMS 250615Z 15012KT 21/17 A30 RMK A01 T02120171  RH  082%=      5-min Rain = 0
KDMS 250620Z 15011KT 21/17 A30 RMK A01 T02110172  RH  082%=      5-min Rain = 0
KDMS 250625Z 15011KT 21/17 A30 RMK A01 T02100174  RH  084%=      5-min Rain = 0
KDMS 250630Z 15011KT 21/18 A30 RMK A01 T02100176  RH  085%=      5-min Rain = 0
KDMS 250635Z 15011KT 21/18 A30 RMK A01 T02110178  RH  086%=      5-min Rain = 0
KDMS 250640Z 15011KT 21/18 A30 RMK A01 T02110180  RH  087%=      5-min Rain = 0
KDMS 250645Z 15011KT 21/18 A30 RMK A01 T02110182  RH  088%=      5-min Rain = 0
KDMS 250650Z 16013KT 21/19 A30 RMK A01 T02130185  RH  088%=      5-min Rain = 0
KDMS 250655Z 16014G19KT 21/19 A30 RMK A01 T02140187  RH  089%=      5-min Rain = 0
KDMS 250700Z 17015KT 22/19 A30 RMK A01 T02150187  RH  089%=      5-min Rain = 0
KDMS 250705Z 16015KT 22/19 A30 RMK A01 T02150187  RH  089%=      5-min Rain = 0
KDMS 250710Z 16014KT 22/19 A30 RMK A01 T02150187  RH  089%=      5-min Rain = 0
KDMS 250715Z 17014KT 22/19 A30 RMK A01 T02160187  RH  088%=      5-min Rain = 0
KDMS 250720Z 17015KT 22/19 A2999 RMK A01 T02150185  RH  088%=      5-min Rain = 0
KDMS 250725Z 17015G20KT 21/18 A2999 RMK A01 T02140183  RH  087%=      5-min Rain = 0
KDMS 250730Z 17014G19KT 21/18 A2999 RMK A01 T02130182  RH  087%=      5-min Rain = 0
KDMS 250735Z 18013KT 21/18 A2999 RMK A01 T02110181  RH  088%=      5-min Rain = 0
KDMS 250740Z 18016KT 21/18 A2999 RMK A01 T02100178  RH  086%=      5-min Rain = 0
KDMS 250745Z 18014KT 21/18 A2999 RMK A01 T02090176  RH  085%=      5-min Rain = 0
KDMS 250750Z 18013KT 21/17 A2999 RMK A01 T02080173  RH  085%=      5-min Rain = 0
KDMS 250755Z 18014KT 21/17 A2999 RMK A01 T02060171  RH  084%=      5-min Rain = 0
KDMS 250800Z 18012KT 21/17 A2999 RMK A01 T02050169  RH  084%=      5-min Rain = 0
KDMS 250805Z 18013KT 20/17 A2999 RMK A01 T02030168  RH  084%=      5-min Rain = 0
KDMS 250810Z 18012KT 20/17 A2999 RMK A01 T02010167  RH  084%=      5-min Rain = 0
KDMS 250815Z 19012KT 20/17 A2999 RMK A01 T02000166  RH  085%=      5-min Rain = 0
KDMS 250820Z 19011KT 20/17 A30 RMK A01 T01990166  RH  085%=      5-min Rain = 0
KDMS 250825Z 19011KT 20/17 A30 RMK A01 T01980165  RH  086%=      5-min Rain = 0
KDMS 250830Z 19011KT 20/16 A2999 RMK A01 T01970164  RH  085%=      5-min Rain = 0
KDMS 250835Z 19010KT 20/16 A2999 RMK A01 T01960164  RH  086%=      5-min Rain = 0
KDMS 250840Z 19011KT 20/16 A2999 RMK A01 T01950162  RH  085%=      5-min Rain = 0
KDMS 250845Z 19011KT 20/16 A2999 RMK A01 T01950158  RH  083%=      5-min Rain = 0
KDMS 250850Z 20011KT 19/15 A2999 RMK A01 T01940153  RH  081%=      5-min Rain = 0
KDMS 250855Z 20011KT 19/15 A2999 RMK A01 T01930151  RH  080%=      5-min Rain = 0
KDMS 250900Z 20011KT 19/15 A2999 RMK A01 T01940150  RH  080%=      5-min Rain = 0
KDMS 250905Z 20010KT 19/15 A2999 RMK A01 T01920150  RH  080%=      5-min Rain = 0
KDMS 250910Z 20010KT 19/15 A2999 RMK A01 T01910149  RH  080%=      5-min Rain = 0
KDMS 250915Z 20010KT 19/15 A2999 RMK A01 T01910148  RH  080%=      5-min Rain = 0
KDMS 250920Z 20010KT 19/15 A2999 RMK A01 T01890147  RH  080%=      5-min Rain = 0
KDMS 250925Z 20011KT 19/15 A2999 RMK A01 T01890146  RH  080%=      5-min Rain = 0
KDMS 250930Z 21010KT 19/15 A2999 RMK A01 T01890146  RH  079%=      5-min Rain = 0
KDMS 250935Z 20009KT 19/14 A2999 RMK A01 T01880144  RH  079%=      5-min Rain = 0
KDMS 250940Z 21011KT 19/14 A2999 RMK A01 T01880142  RH  078%=      5-min Rain = 0
KDMS 250945Z 20011KT 19/14 A2999 RMK A01 T01880141  RH  077%=      5-min Rain = 0
KDMS 250950Z 21011KT 19/14 A2999 RMK A01 T01880139  RH  076%=      5-min Rain = 0
KDMS 250955Z 21011KT 19/14 A2999 RMK A01 T01880136  RH  075%=      5-min Rain = 0
KDMS 251000Z 21011G16KT 19/13 A2999 RMK A01 T01880134  RH  074%=      5-min Rain = 0
KDMS 251005Z 20011KT 19/13 A30 RMK A01 T01870132  RH  073%=      5-min Rain = 0
KDMS 251010Z 21011KT 19/13 A30 RMK A01 T01860131  RH  073%=      5-min Rain = 0
KDMS 251015Z 21011KT 19/13 A30 RMK A01 T01860129  RH  072%=      5-min Rain = 0
KDMS 251020Z 20010KT 18/13 A30 RMK A01 T01840129  RH  073%=      5-min Rain = 0
KDMS 251025Z 20011KT 18/13 A30 RMK A01 T01830127  RH  073%=      5-min Rain = 0
KDMS 251030Z 20011KT 18/13 A30 RMK A01 T01820127  RH  073%=      5-min Rain = 0
KDMS 251035Z 20011KT 18/13 A30 RMK A01 T01810126  RH  073%=      5-min Rain = 0
KDMS 251040Z 20012KT 18/13 A3001 RMK A01 T01800126  RH  074%=      5-min Rain = 0
KDMS 251045Z 20012KT 18/13 A3001 RMK A01 T01790125  RH  073%=      5-min Rain = 0
KDMS 251050Z 20010KT 18/13 A3001 RMK A01 T01780125  RH  074%=      5-min Rain = 0
KDMS 251055Z 21009KT 18/13 A3002 RMK A01 T01780125  RH  074%=      5-min Rain = 0
KDMS 251100Z 20009KT 18/13 A3002 RMK A01 T01770125  RH  074%=      5-min Rain = 0
KDMS 251105Z 21009KT 18/13 A3002 RMK A01 T01760125  RH  075%=      5-min Rain = 0
KDMS 251110Z 21008KT 18/13 A3002 RMK A01 T01760125  RH  075%=      5-min Rain = 0
KDMS 251115Z 21008KT 17/13 A3002 RMK A01 T01740125  RH  076%=      5-min Rain = 0
KDMS 251120Z 21010KT 17/13 A3003 RMK A01 T01730125  RH  076%=      5-min Rain = 0
KDMS 251125Z 21009KT 17/13 A3003 RMK A01 T01720126  RH  077%=      5-min Rain = 0
KDMS 251130Z 21009KT 17/13 A3003 RMK A01 T01700126  RH  078%=      5-min Rain = 0
KDMS 251135Z 21009KT 17/13 A3003 RMK A01 T01690126  RH  079%=      5-min Rain = 0
KDMS 251140Z 22009KT 17/13 A3003 RMK A01 T01680126  RH  079%=      5-min Rain = 0
KDMS 251145Z 21009KT 17/13 A3004 RMK A01 T01670126  RH  080%=      5-min Rain = 0
KDMS 251150Z 21009KT 17/13 A3004 RMK A01 T01670127  RH  080%=      5-min Rain = 0
KDMS 251155Z 21009KT 17/13 A3004 RMK A01 T01670127  RH  080%=      5-min Rain = 0
KDMS 251200Z 21009KT 17/13 A3004 RMK A01 T01670126  RH  080%=      5-min Rain = 0
KDMS 251205Z 22010KT 17/13 A3004 RMK A01 T01680125  RH  079%=      5-min Rain = 0
KDMS 251210Z 22011KT 17/12 A3004 RMK A01 T01720124  RH  076%=      5-min Rain = 0
KDMS 251215Z 23010KT 17/12 A3004 RMK A01 T01740124  RH  075%=      5-min Rain = 0
KDMS 251220Z 23010KT 18/12 A3004 RMK A01 T01750124  RH  075%=      5-min Rain = 0
KDMS 251225Z 23011KT 18/12 A3004 RMK A01 T01770123  RH  073%=      5-min Rain = 0
KDMS 251230Z 23010KT 18/12 A3004 RMK A01 T01790123  RH  072%=      5-min Rain = 0
KDMS 251235Z 23011KT 18/12 A3003 RMK A01 T01810122  RH  071%=      5-min Rain = 0
KDMS 251240Z 23009KT 18/12 A3004 RMK A01 T01830124  RH  071%=      5-min Rain = 0
KDMS 251245Z 23009KT 18/13 A3004 RMK A01 T01840125  RH  071%=      5-min Rain = 0
KDMS 251250Z 23009KT 19/13 A3004 RMK A01 T01850126  RH  071%=      5-min Rain = 0
KDMS 251255Z 23008KT 19/13 A3004 RMK A01 T01880127  RH  070%=      5-min Rain = 0
KDMS 251300Z 23008KT 19/13 A3004 RMK A01 T01920128  RH  069%=      5-min Rain = 0
KDMS 251305Z 23009KT 20/13 A3004 RMK A01 T01950129  RH  068%=      5-min Rain = 0
KDMS 251310Z 23009KT 20/13 A3004 RMK A01 T01980130  RH  067%=      5-min Rain = 0
KDMS 251315Z 23010KT 20/13 A3004 RMK A01 T02000131  RH  067%=      5-min Rain = 0
KDMS 251320Z 23009KT 20/13 A3004 RMK A01 T02030132  RH  066%=      5-min Rain = 0
KDMS 251325Z 23009KT 21/13 A3004 RMK A01 T02060133  RH  066%=      5-min Rain = 0
KDMS 251330Z 23010KT 21/13 A3004 RMK A01 T02090134  RH  064%=      5-min Rain = 0
KDMS 251335Z 23012KT 21/13 A3004 RMK A01 T02120134  RH  063%=      5-min Rain = 0
KDMS 251340Z 23011KT 22/13 A3004 RMK A01 T02150134  RH  063%=      5-min Rain = 0
KDMS 251345Z 23013KT 22/14 A3004 RMK A01 T02190135  RH  061%=      5-min Rain = 0
KDMS 251350Z 24013G18KT 22/13 A3004 RMK A01 T02200134  RH  061%=      5-min Rain = 0
KDMS 251355Z 23013KT 22/13 A3004 RMK A01 T02230134  RH  060%=      5-min Rain = 0
KDMS 251400Z 23014G19KT 23/13 A3004 RMK A01 T02250134  RH  059%=      5-min Rain = 0
KDMS 251405Z 23015G20KT 23/13 A3004 RMK A01 T02260134  RH  058%=      5-min Rain = 0
KDMS 251410Z 23015G23KT 23/14 A3005 RMK A01 T02290135  RH  058%=      5-min Rain = 0
KDMS 251415Z 23016G23KT 23/14 A3004 RMK A01 T02320136  RH  057%=      5-min Rain = 0
KDMS 251420Z 23016KT 23/14 A3005 RMK A01 T02340137  RH  057%=      5-min Rain = 0
KDMS 251425Z 23015KT 24/14 A3005 RMK A01 T02390138  RH  056%=      5-min Rain = 0
KDMS 251430Z 22016G23KT 24/14 A3005 RMK A01 T02420139  RH  055%=      5-min Rain = 0
KDMS 251435Z 22017KT 24/14 A3005 RMK A01 T02440139  RH  054%=      5-min Rain = 0
KDMS 251440Z 22018KT 25/14 A3005 RMK A01 T02470140  RH  054%=      5-min Rain = 0
KDMS 251445Z 22019G25KT 25/14 A3004 RMK A01 T02470140  RH  054%=      5-min Rain = 0
KDMS 251450Z 22017G23KT 25/14 A3004 RMK A01 T02500141  RH  053%=      5-min Rain = 0
KDMS 251455Z 23017KT 25/14 A3004 RMK A01 T02510141  RH  052%=      5-min Rain = 0
KDMS 251500Z 22018KT 25/14 A3004 RMK A01 T02540142  RH  052%=      5-min Rain = 0
KDMS 251505Z 22017KT 26/14 A3004 RMK A01 T02570142  RH  051%=      5-min Rain = 0
KDMS 251510Z 23016G21KT 26/14 A3004 RMK A01 T02580142  RH  051%=      5-min Rain = 0
KDMS 251515Z 22018KT 26/14 A3004 RMK A01 T02590141  RH  050%=      5-min Rain = 0
KDMS 251520Z 22018G23KT 26/14 A3004 RMK A01 T02620141  RH  049%=      5-min Rain = 0
KDMS 251525Z 23017KT 26/14 A3004 RMK A01 T02640141  RH  049%=      5-min Rain = 0
KDMS 251530Z 23015KT 27/14 A3004 RMK A01 T02680143  RH  048%=      5-min Rain = 0
KDMS 251535Z 22015KT 27/14 A3004 RMK A01 T02730141  RH  046%=      5-min Rain = 0
KDMS 251540Z 23016KT 27/14 A3004 RMK A01 T02700141  RH  047%=      5-min Rain = 0
KDMS 251545Z 22017KT 28/14 A3004 RMK A01 T02750141  RH  046%=      5-min Rain = 0
KDMS 251550Z 23016KT 28/14 A3004 RMK A01 T02760140  RH  045%=      5-min Rain = 0
KDMS 251555Z 22016KT 28/14 A3004 RMK A01 T02790140  RH  044%=      5-min Rain = 0
KDMS 251600Z 22016G21KT 28/14 A3004 RMK A01 T02820140  RH  044%=      5-min Rain = 0
KDMS 251605Z 22014KT 28/14 A3004 RMK A01 T02820142  RH  044%=      5-min Rain = 0
KDMS 251610Z 21013G18KT 29/14 A3004 RMK A01 T02850141  RH  043%=      5-min Rain = 0
KDMS 251615Z 21014G19KT 29/14 A3004 RMK A01 T02870141  RH  043%=      5-min Rain = 0
KDMS 251620Z 22015KT 29/14 A3004 RMK A01 T02900139  RH  041%=      5-min Rain = 0
KDMS 251625Z 21014G20KT 29/14 A3004 RMK A01 T02880139  RH  042%=      5-min Rain = 0
KDMS 251630Z 20015KT 29/14 A3004 RMK A01 T02920138  RH  041%=      5-min Rain = 0
KDMS 251635Z 21013G19KT 30/14 A3004 RMK A01 T02950139  RH  040%=      5-min Rain = 0
KDMS 251640Z 21013G21KT 30/14 A3004 RMK A01 T02990141  RH  040%=      5-min Rain = 0
KDMS 251645Z 20013G18KT 30/14 A3004 RMK A01 T02950139  RH  040%=      5-min Rain = 0
KDMS 251650Z 21013G18KT 30/14 A3004 RMK A01 T02990139  RH  039%=      5-min Rain = 0
KDMS 251655Z 21013G18KT 30/14 A3004 RMK A01 T03000138  RH  039%=      5-min Rain = 0
KDMS 251700Z 21012G17KT 31/14 A3004 RMK A01 T03050136  RH  037%=      5-min Rain = 0
KDMS 251705Z 20012G17KT 31/14 A3004 RMK A01 T03080137  RH  037%=      5-min Rain = 0
KDMS 251710Z 21013KT 31/13 A3004 RMK A01 T03060134  RH  036%=      5-min Rain = 0
KDMS 251715Z 21015KT 31/13 A3004 RMK A01 T03090127  RH  034%=      5-min Rain = 0
KDMS 251720Z 20014G20KT 31/13 A3004 RMK A01 T03130130  RH  034%=      5-min Rain = 0
KDMS 251725Z 21015G20KT 31/12 A3004 RMK A01 T03120124  RH  033%=      5-min Rain = 0
KDMS 251730Z 21013G18KT 32/13 A3004 RMK A01 T03160127  RH  033%=      5-min Rain = 0
KDMS 251735Z 21016KT 32/12 A3004 RMK A01 T03180117  RH  030%=      5-min Rain = 0
KDMS 251740Z 21012G17KT 32/12 A3004 RMK A01 T03180121  RH  031%=      5-min Rain = 0
KDMS 251745Z 21013KT 33/12 A3003 RMK A01 T03250120  RH  030%=      5-min Rain = 0
KDMS 251750Z 21014G22KT 33/11 A3003 RMK A01 T03260113  RH  028%=      5-min Rain = 0
KDMS 251755Z 21015G21KT 33/11 A3003 RMK A01 T03290106  RH  026%=      5-min Rain = 0
KDMS 251800Z 21015KT 33/11 A3003 RMK A01 T03290106  RH  026%=      5-min Rain = 0
KDMS 251805Z 20012G18KT 33/10 A3003 RMK A01 T03300100  RH  025%=      5-min Rain = 0
KDMS 251810Z 20012G21KT 33/09 A3003 RMK A01 T03310089  RH  023%=      5-min Rain = 0
KDMS 251815Z 20015G20KT 34/09 A3003 RMK A01 T03350087  RH  022%=      5-min Rain = 0
KDMS 251820Z 21015G20KT 34/07 A3003 RMK A01 T03360074  RH  020%=      5-min Rain = 0
KDMS 251825Z 21011G16KT 34/07 A3003 RMK A01 T03360072  RH  020%=      5-min Rain = 0
KDMS 251830Z 19013G19KT 34/07 A3002 RMK A01 T03370072  RH  020%=      5-min Rain = 0
KDMS 251835Z 19013KT 34/07 A3002 RMK A01 T03420068  RH  019%=      5-min Rain = 0
KDMS 251840Z 20013KT 34/06 A3002 RMK A01 T03430062  RH  018%=      5-min Rain = 0
KDMS 251845Z 20014KT 34/07 A3002 RMK A01 T03440069  RH  019%=      5-min Rain = 0
KDMS 251850Z 20011G16KT 34/07 A3002 RMK A01 T03400067  RH  019%=      5-min Rain = 0
KDMS 251855Z 21011G18KT 34/07 A3002 RMK A01 T03380067  RH  019%=      5-min Rain = 0
KDMS 251900Z 21011KT 34/07 A3002 RMK A01 T03410065  RH  018%=      5-min Rain = 0
KDMS 251905Z 24008G15KT 34/05 A3002 RMK A01 T03400052  RH  017%=      5-min Rain = 0
KDMS 251910Z 21012G19KT 34/06 A3001 RMK A01 T03430057  RH  017%=      5-min Rain = 0
KDMS 251915Z 18011G17KT 35/05 A3002 RMK A01 T03470051  RH  016%=      5-min Rain = 0
KDMS 251920Z 16006G15KT 34/04 A3001 RMK A01 T03430044  RH  016%=      5-min Rain = 0
KDMS 251925Z 17012G18KT 35/05 A3001 RMK A01 T03500051  RH  016%=      5-min Rain = 0
KDMS 251930Z 18010G16KT 35/04 A3001 RMK A01 T03500044  RH  015%=      5-min Rain = 0
KDMS 251935Z 19007KT 35/04 A3001 RMK A01 T03460044  RH  015%=      5-min Rain = 0
KDMS 251940Z 21008G16KT 34/04 A3001 RMK A01 T03440039  RH  015%=      5-min Rain = 0
KDMS 251945Z 20010G15KT 35/05 A30 RMK A01 T03520050  RH  016%=      5-min Rain = 0
KDMS 251950Z 18009G16KT 35/05 A30 RMK A01 T03520047  RH  015%=      5-min Rain = 0
KDMS 251955Z 18014G19KT 35/04 A30 RMK A01 T03540043  RH  015%=      5-min Rain = 0
KDMS 252000Z 17007G16KT 35/04 A30 RMK A01 T03520037  RH  014%=      5-min Rain = 0
KDMS 252005Z 17012G19KT 36/04 A2999 RMK A01 T03590043  RH  014%=      5-min Rain = 0
KDMS 252010Z 19016G21KT 37/04 A2999 RMK A01 T03660042  RH  014%=      5-min Rain = 0
KDMS 252015Z 18013KT 36/04 A2999 RMK A01 T03590044  RH  014%=      5-min Rain = 0
KDMS 252020Z 18013G20KT 36/04 A2999 RMK A01 T03560041  RH  014%=      5-min Rain = 0
KDMS 252025Z 19013G19KT 35/04 A2999 RMK A01 T03480038  RH  015%=      5-min Rain = 0
KDMS 252030Z 18015G22KT 35/05 A2999 RMK A01 T03520045  RH  015%=      5-min Rain = 0
KDMS 252035Z 19016G24KT 36/04 A2999 RMK A01 T03590042  RH  014%=      5-min Rain = 0
KDMS 252040Z 17017G22KT 36/03 A2998 RMK A01 T03560032  RH  013%=      5-min Rain = 0
KDMS 252045Z 18016G22KT 35/03 A2998 RMK A01 T03490030  RH  014%=      5-min Rain = 0
KDMS 252050Z 16013KT 35/03 A2998 RMK A01 T03480029  RH  014%=      5-min Rain = 0
KDMS 252055Z 15009G14KT 35/03 A2998 RMK A01 T03480025  RH  013%=      5-min Rain = 0
KDMS 252100Z 16011KT 35/02 A2998 RMK A01 T03480021  RH  013%=      5-min Rain = 0
KDMS 252105Z 17009KT 34/03 A2998 RMK A01 T03440027  RH  014%=      5-min Rain = 0
KDMS 252110Z 18014G21KT 34/03 A2998 RMK A01 T03430025  RH  014%=      5-min Rain = 0
KDMS 252115Z 17011G19KT 34/02 A2998 RMK A01 T03400020  RH  014%=      5-min Rain = 0
KDMS 252120Z 17009G15KT 34/02 A2997 RMK A01 T03390017  RH  013%=      5-min Rain = 0
KDMS 252125Z 16011G16KT 35/02 A2997 RMK A01 T03460015  RH  013%=      5-min Rain = 0
KDMS 252130Z 17011G19KT 35/02 A2997 RMK A01 T03490017  RH  013%=      5-min Rain = 0
KDMS 252135Z 19013G19KT 35/02 A2997 RMK A01 T03500022  RH  013%=      5-min Rain = 0
KDMS 252140Z 19008KT 35/02 A2997 RMK A01 T03480019  RH  013%=      5-min Rain = 0
KDMS 252145Z 18010G15KT 34/02 A2997 RMK A01 T03440016  RH  013%=      5-min Rain = 0
KDMS 252150Z 17010KT 34/01 A2997 RMK A01 T03420012  RH  013%=      5-min Rain = 0
KDMS 252155Z 18010KT 34/01 A2997 RMK A01 T03400009  RH  012%=      5-min Rain = 0
KDMS 252200Z 20016G26KT 34/02 A2997 RMK A01 T03430016  RH  013%=      5-min Rain = 0
KDMS 252205Z 22022G40KT 35/02 A2997 RMK A01 T03490024  RH  013%=      5-min Rain = 0
KDMS 252210Z 19018G28KT 35/02 A2998 RMK A01 T03460015  RH  013%=      5-min Rain = 0
KDMS 252215Z 17010G18KT 34/01 A2998 RMK A01 T03400013  RH  013%=      5-min Rain = 0
KDMS 252220Z 14010KT 34/01 A2997 RMK A01 T03410013  RH  013%=      5-min Rain = 0
KDMS 252225Z 13016G40KT 34/02 A2997 RMK A01 T03410019  RH  013%=      5-min Rain = 0
KDMS 252230Z 14012G26KT 34/02 A2997 RMK A01 T03400017  RH  013%=      5-min Rain = 0
KDMS 252235Z 13004G11KT 34/02 A2996 RMK A01 T03410016  RH  013%=      5-min Rain = 0
KDMS 252240Z 12005KT 34/02 A2996 RMK A01 T03410017  RH  013%=      5-min Rain = 0
KDMS 252245Z 12010G18KT 34/02 A2996 RMK A01 T03440021  RH  013%=      5-min Rain = 0
KDMS 252250Z 13007KT 35/02 A2996 RMK A01 T03460021  RH  013%=      5-min Rain = 0
KDMS 252255Z 12008KT 35/02 A2995 RMK A01 T03490023  RH  013%=      5-min Rain = 0
KDMS 252300Z 16007KT 35/02 A2995 RMK A01 T03480024  RH  013%=      5-min Rain = 0
KDMS 252305Z 14012G18KT 35/04 A2995 RMK A01 T03520044  RH  015%=      5-min Rain = 0
KDMS 252310Z 15014G20KT 35/06 A2995 RMK A01 T03530064  RH  017%=      5-min Rain = 0
KDMS 252315Z 18012G18KT 35/06 A2994 RMK A01 T03510060  RH  017%=      5-min Rain = 0
KDMS 252320Z 15015G22KT 35/07 A2994 RMK A01 T03500074  RH  019%=      5-min Rain = 0
KDMS 252325Z 16019KT 35/08 A2994 RMK A01 T03490080  RH  020%=      5-min Rain = 0
KDMS 252330Z 16019G25KT 35/09 A2993 RMK A01 T03490093  RH  022%=      5-min Rain = 0
KDMS 252335Z 17018G23KT 34/10 A2993 RMK A01 T03430100  RH  023%=      5-min Rain = 0
KDMS 252340Z 17019G25KT 34/10 A2992 RMK A01 T03430100  RH  023%=      5-min Rain = 0
KDMS 252345Z 17023G28KT 34/11 A2992 RMK A01 T03400106  RH  025%=      5-min Rain = 0
KDMS 252350Z 16021KT 34/11 A2992 RMK A01 T03390114  RH  026%=      5-min Rain = 0
KDMS 252355Z 16020G25KT 34/11 A2993 RMK A01 T03380112  RH  026%=      5-min Rain = 0
KDMS 260000Z 17019KT 34/11 A2993 RMK A01 T03370112  RH  026%=      5-min Rain = 0
KDMS 260005Z 16020G26KT 33/12 A2993 RMK A01 T03340116  RH  027%=      5-min Rain = 0
KDMS 260010Z 15019G25KT 33/11 A2994 RMK A01 T03320114  RH  027%=      5-min Rain = 0
KDMS 260015Z 15020G27KT 33/12 A2994 RMK A01 T03320120  RH  029%=      5-min Rain = 0
KDMS 260020Z 16019G26KT 33/12 A2994 RMK A01 T03310118  RH  028%=      5-min Rain = 0
KDMS 260025Z 16021G27KT 33/12 A2994 RMK A01 T03330115  RH  027%=      5-min Rain = 0
KDMS 260030Z 16021G26KT 33/11 A2994 RMK A01 T03290112  RH  027%=      5-min Rain = 0
KDMS 260035Z 15020G26KT 33/11 A2994 RMK A01 T03290110  RH  027%=      5-min Rain = 0
KDMS 260040Z 15020G25KT 33/11 A2995 RMK A01 T03280110  RH  027%=      5-min Rain = 0
KDMS 260045Z 15020G26KT 33/11 A2995 RMK A01 T03250110  RH  028%=      5-min Rain = 0
KDMS 260050Z 15020G26KT 33/11 A2996 RMK A01 T03260110  RH  028%=      5-min Rain = 0
KDMS 260055Z 14018G24KT 33/11 A2997 RMK A01 T03250109  RH  028%=      5-min Rain = 0
KDMS 260100Z 10021G32KT 30/12 A2999 RMK A01 T02990121  RH  035%=      5-min Rain = 0
KDMS 260105Z 08029G35KT 24/13 A30 RMK A01 T02400130  RH  052%=      5-min Rain = 0
KDMS 260110Z 08028G34KT 23/13 A30 RMK A01 T02320131  RH  055%=      5-min Rain = 0
KDMS 260115Z 08024G30KT 23/13 A30 RMK A01 T02330131  RH  055%=      5-min Rain = 0
KDMS 260120Z 08024G31KT 23/13 A30 RMK A01 T02340131  RH  054%=      5-min Rain = 0
KDMS 260125Z 07028G33KT 23/13 A30 RMK A01 T02280134  RH  058%=      5-min Rain = 0
KDMS 260130Z 08027G33KT 22/13 A3001 RMK A01 T02200132  RH  060%=      5-min Rain = 0
KDMS 260135Z 08027G33KT 22/12 A3002 RMK A01 T02170123  RH  057%=      5-min Rain = 0
KDMS 260140Z 08027G33KT 22/11 A3002 RMK A01 T02170113  RH  054%=      5-min Rain = 0
KDMS 260145Z 08029G38KT 22/11 A3002 RMK A01 T02170112  RH  053%=      5-min Rain = 0
KDMS 260150Z 09029G39KT 21/12 A3002 RMK A01 T02140118  RH  056%=      5-min Rain = 0
KDMS 260155Z 09024G29KT 21/12 A3003 RMK A01 T02120121  RH  058%=      5-min Rain = 0
KDMS 260200Z 09025G31KT 21/12 A3003 RMK A01 T02100124  RH  060%=      5-min Rain = 0
KDMS 260205Z 09023G31KT 21/13 A3003 RMK A01 T02100125  RH  060%=      5-min Rain = 0
KDMS 260210Z 09022G28KT 21/12 A3003 RMK A01 T02120123  RH  059%=      5-min Rain = 0
KDMS 260215Z 09024G30KT 21/12 A3003 RMK A01 T02130121  RH  058%=      5-min Rain = 0
KDMS 260220Z 09024G32KT 21/12 A3004 RMK A01 T02130120  RH  057%=      5-min Rain = 0
KDMS 260225Z 10024G30KT 21/12 A3004 RMK A01 T02130123  RH  059%=      5-min Rain = 0
KDMS 260230Z 10026G33KT 21/13 A3004 RMK A01 T02130125  RH  060%=      5-min Rain = 0
KDMS 260235Z 10023G29KT 21/13 A3005 RMK A01 T02110126  RH  060%=      5-min Rain = 0
KDMS 260240Z 10023G31KT 21/13 A3005 RMK A01 T02130125  RH  059%=      5-min Rain = 0
KDMS 260245Z 10024G32KT 22/12 A3005 RMK A01 T02150122  RH  057%=      5-min Rain = 0
KDMS 260250Z 10025KT 22/12 A3005 RMK A01 T02160123  RH  057%=      5-min Rain = 0
KDMS 260255Z 10025G32KT 22/12 A3005 RMK A01 T02170124  RH  058%=      5-min Rain = 0
KDMS 260300Z 10026G31KT 21/13 A3005 RMK A01 T02140129  RH  060%=      5-min Rain = 0
KDMS 260305Z 11025G30KT 21/13 A3005 RMK A01 T02120131  RH  062%=      5-min Rain = 0
KDMS 260310Z 11023G28KT 21/13 A3005 RMK A01 T02130132  RH  062%=      5-min Rain = 0
KDMS 260315Z 11024G29KT 22/13 A3006 RMK A01 T02150131  RH  061%=      5-min Rain = 0
KDMS 260320Z 11024G31KT 22/13 A3006 RMK A01 T02170129  RH  060%=      5-min Rain = 0
KDMS 260325Z 11022G29KT 22/13 A3007 RMK A01 T02190129  RH  059%=      5-min Rain = 0
KDMS 260330Z 11021G29KT 22/13 A3007 RMK A01 T02200127  RH  058%=      5-min Rain = 0
KDMS 260335Z 11021G30KT 22/12 A3007 RMK A01 T02210124  RH  056%=      5-min Rain = 0
KDMS 260340Z 11022G28KT 22/12 A3007 RMK A01 T02220119  RH  054%=      5-min Rain = 0
KDMS 260345Z 12023G28KT 22/12 A3008 RMK A01 T02220118  RH  054%=      5-min Rain = 0
KDMS 260350Z 12020G29KT 22/12 A3008 RMK A01 T02230119  RH  054%=      5-min Rain = 0
KDMS 260355Z 12021G28KT 22/12 A3009 RMK A01 T02230120  RH  054%=      5-min Rain = 0
KDMS 260400Z 12021G26KT 22/12 A3009 RMK A01 T02240120  RH  054%=      5-min Rain = 0
KDMS 260405Z 11021G27KT 22/12 A3009 RMK A01 T02240123  RH  055%=      5-min Rain = 0
KDMS 260410Z 11019G24KT 23/13 A3009 RMK A01 T02250125  RH  055%=      5-min Rain = 0
KDMS 260415Z 11019KT 23/13 A301 RMK A01 T02260128  RH  056%=      5-min Rain = 0
KDMS 260420Z 11018G23KT 23/13 A301 RMK A01 T02250130  RH  057%=      5-min Rain = 0
KDMS 260425Z 11019G24KT 22/13 A3011 RMK A01 T02240133  RH  058%=      5-min Rain = 0
KDMS 260430Z 11018G24KT 22/14 A3011 RMK A01 T02230135  RH  060%=      5-min Rain = 0
KDMS 260435Z 11018KT 22/14 A3011 RMK A01 T02230136  RH  060%=      5-min Rain = 0
KDMS 260440Z 12016KT 22/14 A3012 RMK A01 T02230137  RH  061%=      5-min Rain = 0
KDMS 260445Z 12015KT 22/14 A3012 RMK A01 T02230138  RH  061%=      5-min Rain = 0
KDMS 260450Z 12016KT 22/14 A3012 RMK A01 T02230139  RH  061%=      5-min Rain = 0
KDMS 260455Z 12016KT 22/14 A3011 RMK A01 T02220139  RH  062%=      5-min Rain = 0

Page generated in 0.0096 seconds.